createdAt,value
2022-10-14T00:00:33.993Z,8.54
2022-10-14T00:03:00.734Z,8.64
2022-10-14T00:05:27.556Z,8.52
2022-10-14T00:07:54.144Z,8.41
2022-10-14T00:10:21.318Z,8.37
2022-10-14T00:12:47.914Z,8.50
2022-10-14T00:15:14.478Z,8.71
2022-10-14T00:17:41.154Z,8.32
2022-10-14T00:20:08.556Z,8.20
2022-10-14T00:22:35.258Z,8.42
2022-10-14T00:25:01.940Z,8.88
2022-10-14T00:27:28.527Z,9.29
2022-10-14T00:29:55.128Z,9.37
2022-10-14T00:32:21.695Z,9.17
2022-10-14T00:34:48.297Z,9.43
2022-10-14T00:37:14.915Z,10.01
2022-10-14T00:39:41.569Z,9.65
2022-10-14T00:42:13.848Z,8.74
2022-10-14T00:44:43.548Z,8.53
2022-10-14T00:47:10.352Z,8.48
2022-10-14T00:49:42.240Z,8.97
2022-10-14T00:52:16.701Z,8.60
2022-10-14T00:54:58.396Z,9.27
2022-10-14T00:57:26.687Z,9.37
2022-10-14T01:00:01.764Z,8.89
2022-10-14T01:02:29.225Z,9.25
2022-10-14T01:04:56.426Z,9.22
2022-10-14T01:07:34.134Z,9.42
2022-10-14T01:10:14.654Z,9.60
2022-10-14T01:13:03.015Z,8.95
2022-10-14T01:15:41.925Z,8.65
2022-10-14T01:18:30.464Z,8.91
2022-10-14T01:21:00.029Z,9.54
2022-10-14T01:23:32.837Z,9.03
2022-10-14T01:26:19.847Z,8.65
2022-10-14T01:29:20.401Z,8.43
2022-10-14T01:32:23.556Z,8.16
2022-10-14T01:35:03.620Z,8.11
2022-10-14T01:37:36.990Z,8.05
2022-10-14T01:40:13.687Z,7.65
2022-10-14T01:42:44.838Z,8.05
2022-10-14T01:45:22.682Z,7.88
2022-10-14T01:47:53.179Z,7.93
2022-10-14T01:50:24.942Z,8.01
2022-10-14T01:53:02.415Z,8.15
2022-10-14T01:55:35.064Z,8.06
2022-10-14T01:58:04.154Z,7.83
2022-10-14T02:00:30.714Z,7.97
2022-10-14T02:02:57.379Z,7.52
2022-10-14T02:05:38.864Z,7.55
2022-10-14T02:08:20.738Z,8.04
2022-10-14T02:11:02.162Z,7.87
2022-10-14T02:13:41.645Z,8.26
2022-10-14T02:16:29.323Z,8.08
2022-10-14T02:19:20.414Z,7.76
2022-10-14T02:22:01.794Z,7.83
2022-10-14T02:24:40.124Z,7.98
2022-10-14T02:27:16.300Z,7.17
2022-10-14T02:29:47.271Z,7.75
2022-10-14T02:32:19.077Z,7.60
2022-10-14T02:34:52.048Z,7.99
2022-10-14T02:37:22.219Z,8.13
2022-10-14T02:40:07.393Z,8.30
2022-10-14T02:42:34.363Z,8.95
2022-10-14T02:45:01.690Z,8.60
2022-10-14T02:47:28.665Z,8.52
2022-10-14T02:49:55.437Z,8.67
2022-10-14T02:52:22.351Z,8.32
2022-10-14T02:54:49.295Z,8.87
2022-10-14T02:57:15.927Z,9.37
2022-10-14T02:59:43.545Z,9.57
2022-10-14T03:02:10.428Z,9.82
2022-10-14T03:04:37.223Z,9.41
2022-10-14T03:07:05.021Z,10.33
2022-10-14T03:09:31.709Z,10.11
2022-10-14T03:11:58.424Z,10.16
2022-10-14T03:14:25.371Z,10.50
2022-10-14T03:16:52.119Z,10.63
2022-10-14T03:19:18.841Z,10.58
2022-10-14T03:21:45.865Z,10.46
2022-10-14T03:24:12.494Z,10.56
2022-10-14T03:26:39.074Z,10.75
2022-10-14T03:29:05.710Z,10.53
2022-10-14T03:31:32.307Z,11.23
2022-10-14T03:33:58.937Z,11.47
2022-10-14T03:36:25.629Z,11.68
2022-10-14T03:38:52.218Z,11.57
2022-10-14T03:41:18.790Z,12.07
2022-10-14T03:43:45.393Z,11.87
2022-10-14T03:46:11.968Z,11.93
2022-10-14T03:48:38.585Z,12.36
2022-10-14T03:51:05.164Z,12.46
2022-10-14T03:53:31.895Z,12.85
2022-10-14T03:55:58.652Z,12.78
2022-10-14T03:58:25.533Z,13.08
2022-10-14T04:00:52.346Z,12.75
2022-10-14T04:03:18.920Z,12.47
2022-10-14T04:05:45.542Z,12.61
2022-10-14T04:08:12.183Z,12.53
2022-10-14T04:10:38.999Z,12.81
2022-10-14T04:13:22.359Z,13.04
2022-10-14T04:15:48.986Z,12.80
2022-10-14T04:18:15.836Z,12.28
2022-10-14T04:20:42.481Z,12.16
2022-10-14T04:23:09.134Z,11.91
2022-10-14T04:25:38.204Z,12.08
2022-10-14T04:28:05.254Z,12.21
2022-10-14T04:30:31.973Z,11.65
2022-10-14T04:32:58.990Z,11.08
2022-10-14T04:35:25.612Z,11.20
2022-10-14T04:37:52.327Z,11.06
2022-10-14T04:40:19.163Z,10.38
2022-10-14T04:42:45.810Z,10.80
2022-10-14T04:45:12.391Z,10.62
2022-10-14T04:47:39.226Z,10.93
2022-10-14T04:50:06.231Z,10.97
2022-10-14T04:52:32.817Z,12.07
2022-10-14T04:54:59.450Z,11.64
2022-10-14T04:57:26.088Z,12.56
2022-10-14T04:59:52.682Z,12.54
2022-10-14T05:02:19.751Z,12.49
2022-10-14T05:04:46.698Z,12.08
2022-10-14T05:07:13.361Z,11.77
2022-10-14T05:09:40.099Z,11.99
2022-10-14T05:12:06.820Z,11.85
2022-10-14T05:14:33.505Z,12.15
2022-10-14T05:17:00.097Z,11.95
2022-10-14T05:19:26.731Z,12.36
2022-10-14T05:21:53.308Z,12.09
2022-10-14T05:24:19.994Z,11.84
2022-10-14T05:26:46.646Z,11.85
2022-10-14T05:29:13.227Z,11.25
2022-10-14T05:31:39.813Z,10.72
2022-10-14T05:34:06.428Z,11.20
2022-10-14T05:36:33.116Z,11.44
2022-10-14T05:38:59.710Z,11.00
2022-10-14T05:41:26.374Z,11.24
2022-10-14T05:43:53.758Z,10.90
2022-10-14T05:46:20.453Z,11.12
2022-10-14T05:48:47.475Z,11.21
2022-10-14T05:51:14.319Z,11.27
2022-10-14T05:53:41.451Z,11.43
2022-10-14T05:56:09.872Z,11.20
2022-10-14T05:58:36.580Z,11.54
2022-10-14T06:01:06.469Z,11.33
2022-10-14T06:03:33.499Z,10.89
2022-10-14T06:06:01.020Z,11.38
2022-10-14T06:08:28.284Z,11.43
2022-10-14T06:10:55.145Z,11.23
2022-10-14T06:13:21.986Z,11.67
2022-10-14T06:15:48.771Z,11.39
2022-10-14T06:18:15.759Z,11.44
2022-10-14T06:20:42.584Z,11.17
2022-10-14T06:23:09.246Z,11.08
2022-10-14T06:25:36.627Z,10.72
2022-10-14T06:28:05.132Z,11.12
2022-10-14T06:30:32.869Z,10.81
2022-10-14T06:32:59.485Z,11.02
2022-10-14T06:35:26.174Z,10.82
2022-10-14T06:37:52.911Z,11.10
2022-10-14T06:40:19.903Z,10.59
2022-10-14T06:42:46.584Z,11.05
2022-10-14T06:45:13.403Z,10.68
2022-10-14T06:47:40.151Z,10.54
2022-10-14T06:50:07.461Z,10.94
2022-10-14T06:52:34.154Z,10.85
2022-10-14T06:55:04.031Z,10.56
2022-10-14T06:57:30.789Z,10.72
2022-10-14T06:59:57.435Z,10.53
2022-10-14T07:02:24.571Z,10.67
2022-10-14T07:04:51.740Z,10.48
2022-10-14T07:07:18.420Z,10.39
2022-10-14T07:09:45.176Z,10.54
2022-10-14T07:12:11.856Z,10.32
2022-10-14T07:14:38.604Z,9.79
2022-10-14T07:17:07.526Z,10.08
2022-10-14T07:19:34.656Z,9.61
2022-10-14T07:22:01.613Z,9.50
2022-10-14T07:24:28.256Z,9.28
2022-10-14T07:26:55.012Z,9.36
2022-10-14T07:29:21.724Z,9.70
2022-10-14T07:31:48.428Z,8.90
2022-10-14T07:34:15.362Z,8.51
2022-10-14T07:36:41.999Z,8.41
2022-10-14T07:39:08.635Z,8.10
2022-10-14T07:41:35.544Z,8.35
2022-10-14T07:44:04.688Z,8.36
2022-10-14T07:46:33.724Z,8.04
2022-10-14T07:49:11.466Z,7.98
2022-10-14T07:51:38.953Z,7.76
2022-10-14T07:54:09.299Z,7.92
2022-10-14T07:56:41.434Z,7.84
2022-10-14T07:59:08.212Z,7.61
2022-10-14T08:01:35.042Z,7.68
2022-10-14T08:04:02.034Z,7.56
2022-10-14T08:06:28.688Z,7.68
2022-10-14T08:08:55.652Z,7.63
2022-10-14T08:11:28.215Z,7.87
2022-10-14T08:13:55.877Z,8.04
2022-10-14T08:16:28.576Z,7.43
2022-10-14T08:18:57.904Z,7.14
2022-10-14T08:21:24.972Z,7.67
2022-10-14T08:23:52.057Z,7.80
2022-10-14T08:26:29.689Z,7.43
2022-10-14T08:28:57.822Z,7.49
2022-10-14T08:31:24.582Z,7.29
2022-10-14T08:33:51.341Z,7.37
2022-10-14T08:36:19.388Z,7.62
2022-10-14T08:38:47.348Z,7.74
2022-10-14T08:41:13.838Z,7.43
2022-10-14T08:43:54.239Z,7.66
2022-10-14T08:46:28.449Z,7.43
2022-10-14T08:49:06.448Z,7.48
2022-10-14T08:51:34.729Z,7.18
2022-10-14T08:54:11.327Z,7.26
2022-10-14T08:56:38.326Z,7.48
2022-10-14T08:59:14.682Z,7.74
2022-10-14T09:01:50.621Z,7.62
2022-10-14T09:04:17.594Z,7.82
2022-10-14T09:06:47.440Z,7.90
2022-10-14T09:09:43.513Z,7.86
2022-10-14T09:12:17.507Z,8.11
2022-10-14T09:15:08.812Z,7.48
2022-10-14T09:17:45.684Z,6.79
2022-10-14T09:20:17.199Z,6.41
2022-10-14T09:22:43.888Z,6.70
2022-10-14T09:25:16.644Z,6.52
2022-10-14T09:27:44.480Z,6.59
2022-10-14T09:30:17.881Z,6.26
2022-10-14T09:32:51.897Z,6.67
2022-10-14T09:35:24.907Z,6.81
2022-10-14T09:37:52.514Z,6.88
2022-10-14T09:40:28.503Z,7.44
2022-10-14T09:43:04.041Z,13.22
2022-10-14T09:46:03.287Z,7.61
2022-10-14T09:48:47.996Z,6.36
2022-10-14T09:51:26.327Z,6.53
2022-10-14T09:53:56.433Z,6.94
2022-10-14T09:56:34.281Z,6.53
2022-10-14T09:59:05.087Z,6.75
2022-10-14T10:01:53.359Z,6.74
2022-10-14T10:04:32.847Z,6.42
2022-10-14T10:07:03.514Z,5.90
2022-10-14T10:09:30.127Z,6.38
2022-10-14T10:11:56.706Z,6.44
2022-10-14T10:14:30.416Z,6.51
2022-10-14T10:17:09.345Z,6.98
2022-10-14T10:19:38.313Z,7.14
2022-10-14T10:25:11.633Z,6.69
2022-10-14T10:27:39.562Z,6.77
2022-10-14T10:30:18.297Z,6.73
2022-10-14T10:32:57.307Z,6.54
2022-10-14T10:35:27.001Z,5.94
2022-10-14T10:38:21.989Z,6.02
2022-10-14T10:40:51.586Z,5.91
2022-10-14T10:43:37.003Z,6.21
2022-10-14T10:46:12.690Z,5.90
2022-10-14T10:48:52.791Z,6.04
2022-10-14T10:51:25.404Z,5.41
2022-10-14T10:54:06.390Z,5.23
2022-10-14T10:56:48.127Z,5.43
2022-10-14T10:59:41.369Z,5.39
2022-10-14T11:02:39.477Z,5.23
2022-10-14T11:05:11.936Z,5.11
2022-10-14T11:07:57.919Z,5.60
2022-10-14T11:10:43.386Z,5.78
2022-10-14T11:13:38.168Z,5.80
2022-10-14T11:16:38.748Z,5.79
2022-10-14T11:19:24.799Z,5.84
2022-10-14T11:21:59.206Z,5.75
2022-10-14T11:25:07.740Z,5.30
2022-10-14T11:27:51.566Z,5.60
2022-10-14T11:30:28.652Z,5.67
2022-10-14T11:33:28.703Z,5.44
2022-10-14T11:36:19.220Z,5.67
2022-10-14T11:38:59.980Z,5.69
2022-10-14T11:41:41.430Z,5.17
2022-10-14T11:44:28.911Z,5.00
2022-10-14T11:47:02.051Z,5.01
2022-10-14T11:49:40.495Z,4.84
2022-10-14T11:52:15.073Z,4.45
2022-10-14T11:54:50.660Z,3.95
2022-10-14T11:57:31.113Z,4.38
2022-10-14T12:00:23.024Z,4.19
2022-10-14T12:03:01.642Z,3.87
2022-10-14T12:05:33.911Z,3.89
2022-10-14T12:08:33.151Z,3.87
2022-10-14T12:11:11.589Z,3.78
2022-10-14T12:13:45.767Z,3.84
2022-10-14T12:16:24.160Z,4.15
2022-10-14T12:18:55.665Z,3.91
2022-10-14T12:21:49.683Z,4.18
2022-10-14T12:24:23.576Z,3.74
2022-10-14T12:27:01.919Z,3.68
2022-10-14T12:29:33.289Z,3.48
2022-10-14T12:32:05.847Z,3.39
2022-10-14T12:34:43.751Z,3.83
2022-10-14T12:37:31.636Z,4.02
2022-10-14T12:40:04.697Z,4.28
2022-10-14T12:42:36.566Z,4.15
2022-10-14T12:45:15.688Z,3.85
2022-10-14T12:47:43.077Z,4.09
2022-10-14T12:50:15.583Z,4.10
2022-10-14T12:52:55.961Z,4.24
2022-10-14T12:55:25.916Z,4.41
2022-10-14T12:58:04.654Z,4.25
2022-10-14T13:00:38.527Z,4.16
2022-10-14T13:03:20.422Z,4.22
2022-10-14T13:05:48.012Z,4.27
2022-10-14T13:08:20.930Z,4.29
2022-10-14T13:10:48.874Z,4.34
2022-10-14T13:13:40.324Z,4.11
2022-10-14T13:16:25.552Z,4.09
2022-10-14T13:19:14.838Z,4.02
2022-10-14T13:21:41.428Z,4.10
2022-10-14T13:24:15.937Z,4.17
2022-10-14T13:26:54.609Z,4.25
2022-10-14T13:29:21.221Z,3.84
2022-10-14T13:32:05.922Z,3.85
2022-10-14T13:35:03.147Z,3.55
2022-10-14T13:37:35.935Z,3.37
2022-10-14T13:40:20.827Z,3.10
2022-10-14T13:42:57.095Z,3.10
2022-10-14T13:45:43.379Z,3.14
2022-10-14T13:48:16.691Z,3.25
2022-10-14T13:50:47.702Z,2.96
2022-10-14T13:53:18.486Z,3.08
2022-10-14T13:55:54.245Z,3.21
2022-10-14T13:58:23.793Z,2.86
2022-10-14T14:00:56.545Z,2.93
2022-10-14T14:03:49.894Z,2.67
2022-10-14T14:06:19.536Z,2.43
2022-10-14T14:08:51.013Z,2.63
2022-10-14T14:11:22.687Z,2.72
2022-10-14T14:14:00.726Z,2.33
2022-10-14T14:16:38.554Z,2.41
2022-10-14T14:19:09.933Z,2.53
2022-10-14T14:21:38.170Z,2.37
2022-10-14T14:24:16.878Z,2.26
2022-10-14T14:26:44.398Z,2.29
2022-10-14T14:29:32.464Z,2.32
2022-10-14T14:32:08.723Z,2.56
2022-10-14T14:34:38.181Z,2.47
2022-10-14T14:37:33.929Z,2.65
2022-10-14T14:40:17.507Z,2.66
2022-10-14T14:42:48.120Z,2.98
2022-10-14T14:45:25.118Z,3.07
2022-10-14T14:47:56.246Z,3.27
2022-10-14T14:50:30.970Z,3.81
2022-10-14T14:53:06.853Z,4.19
2022-10-14T14:55:36.139Z,4.11
2022-10-14T14:58:07.103Z,3.91
2022-10-14T15:00:33.755Z,4.07
2022-10-14T15:03:03.521Z,3.72
2022-10-14T15:05:30.796Z,3.47
2022-10-14T15:07:57.533Z,2.99
2022-10-14T15:10:29.283Z,3.04
2022-10-14T15:12:58.720Z,2.86
2022-10-14T15:15:34.638Z,2.80
2022-10-14T15:18:22.343Z,2.87
2022-10-14T15:20:49.198Z,2.69
2022-10-14T15:23:39.532Z,2.43
2022-10-14T15:26:21.386Z,2.78
2022-10-14T15:29:08.318Z,2.58
2022-10-14T15:31:36.928Z,2.18
2022-10-14T15:34:05.271Z,1.70
2022-10-14T15:36:34.660Z,1.62
2022-10-14T15:39:01.250Z,1.38
2022-10-14T15:41:28.681Z,1.39
2022-10-14T15:43:55.286Z,1.38
2022-10-14T15:46:22.954Z,1.33
2022-10-14T15:48:53.778Z,1.33
2022-10-14T15:51:23.190Z,1.45
2022-10-14T15:53:50.771Z,1.55
2022-10-14T15:56:17.453Z,1.89
2022-10-14T15:58:44.128Z,1.91
2022-10-14T16:01:18.831Z,1.98
2022-10-14T16:03:45.828Z,1.97
2022-10-14T16:06:12.480Z,2.15
2022-10-14T16:08:39.133Z,2.08
2022-10-14T16:11:05.969Z,2.34
2022-10-14T16:13:32.652Z,2.37
2022-10-14T16:16:04.090Z,2.39
2022-10-14T16:18:30.667Z,2.47
2022-10-14T16:20:57.260Z,2.31
2022-10-14T16:23:23.848Z,2.46
2022-10-14T16:25:50.730Z,2.45
2022-10-14T16:28:18.246Z,2.97
2022-10-14T16:30:48.182Z,2.98
2022-10-14T16:33:21.008Z,2.90
2022-10-14T16:35:56.037Z,2.72
2022-10-14T16:38:23.711Z,2.77
2022-10-14T16:40:55.434Z,3.07
2022-10-14T16:43:22.444Z,3.22
2022-10-14T16:45:49.091Z,3.25
2022-10-14T16:48:15.742Z,3.29
2022-10-14T16:50:42.415Z,3.18
2022-10-14T16:53:09.028Z,3.16
2022-10-14T16:55:35.663Z,2.90
2022-10-14T16:58:02.543Z,3.32
2022-10-14T17:00:29.163Z,3.13
2022-10-14T17:02:55.744Z,3.29
2022-10-14T17:05:22.584Z,3.32
2022-10-14T17:07:49.223Z,3.52
2022-10-14T17:10:15.923Z,3.24
2022-10-14T17:12:42.651Z,3.43
2022-10-14T17:15:09.904Z,3.41
2022-10-14T17:17:36.539Z,3.52
2022-10-14T17:20:03.237Z,3.54
2022-10-14T17:22:30.013Z,3.90
2022-10-14T17:24:56.613Z,4.15
2022-10-14T17:27:23.180Z,3.66
2022-10-14T17:29:50.522Z,3.46
2022-10-14T17:32:19.690Z,3.60
2022-10-14T17:34:46.508Z,3.45
2022-10-14T17:37:13.164Z,3.46
2022-10-14T17:39:39.869Z,3.28
2022-10-14T17:42:06.726Z,3.26
2022-10-14T17:44:33.372Z,3.28
2022-10-14T17:47:00.021Z,2.88
2022-10-14T17:49:26.629Z,2.76
2022-10-14T17:51:53.270Z,2.77
2022-10-14T17:54:20.020Z,2.76
2022-10-14T17:56:46.660Z,2.43
2022-10-14T17:59:13.292Z,2.18
2022-10-14T18:04:26.816Z,1.97
2022-10-14T18:06:53.422Z,1.91
2022-10-14T18:09:20.062Z,2.06
2022-10-14T18:14:35.458Z,2.11
2022-10-14T18:17:02.273Z,1.99
2022-10-14T18:19:28.979Z,1.96
2022-10-14T18:21:55.613Z,1.96
2022-10-14T18:24:22.360Z,2.18
2022-10-14T18:26:53.124Z,2.11
2022-10-14T18:29:20.146Z,2.13
2022-10-14T18:31:49.599Z,2.02
2022-10-14T18:34:16.749Z,1.75
2022-10-14T18:36:43.514Z,1.59
2022-10-14T18:39:11.882Z,1.75
2022-10-14T18:41:38.722Z,1.75
2022-10-14T18:44:06.151Z,1.73
2022-10-14T18:46:36.128Z,1.59
2022-10-14T18:49:06.019Z,1.78
2022-10-14T18:51:35.882Z,1.53
2022-10-14T18:54:09.188Z,1.51
2022-10-14T18:56:37.220Z,1.58
2022-10-14T18:59:07.188Z,1.52
2022-10-14T19:01:34.112Z,1.43
2022-10-14T19:04:01.461Z,1.66
2022-10-14T19:06:28.116Z,1.52
2022-10-14T19:08:55.779Z,1.58
2022-10-14T19:11:25.169Z,1.35
2022-10-14T19:13:56.826Z,1.52
2022-10-14T19:16:27.650Z,1.72
2022-10-14T19:18:56.511Z,1.59
2022-10-14T19:21:24.366Z,1.62
2022-10-14T19:23:50.954Z,1.60
2022-10-14T19:26:20.901Z,1.46
2022-10-14T19:28:48.054Z,1.57
2022-10-14T19:31:17.896Z,1.65
2022-10-14T19:33:46.154Z,1.51
2022-10-14T19:36:15.646Z,1.67
2022-10-14T19:38:48.548Z,1.63
2022-10-14T19:41:15.233Z,1.58
2022-10-14T19:43:41.934Z,1.66
2022-10-14T19:46:11.423Z,1.86
2022-10-14T19:48:38.265Z,1.72
2022-10-14T19:51:07.432Z,1.81
2022-10-14T19:53:34.080Z,1.95
2022-10-14T19:56:08.258Z,1.90
2022-10-14T19:58:36.848Z,2.09
2022-10-14T20:01:17.677Z,2.27
2022-10-14T20:03:44.518Z,2.40
2022-10-14T20:06:13.701Z,2.38
2022-10-14T20:08:41.826Z,2.46
2022-10-14T20:11:11.236Z,2.65
2022-10-14T20:13:38.117Z,2.87
2022-10-14T20:16:11.411Z,2.80
2022-10-14T20:18:38.579Z,2.91
2022-10-14T20:21:07.712Z,3.09
2022-10-14T20:23:35.987Z,2.99
2022-10-14T20:26:05.785Z,2.75
2022-10-14T20:28:35.857Z,2.92
2022-10-14T20:31:05.650Z,3.04
2022-10-14T20:33:33.117Z,3.15
2022-10-14T20:36:01.752Z,3.31
2022-10-14T20:38:28.828Z,3.16
2022-10-14T20:40:55.466Z,3.08
2022-10-14T20:43:22.340Z,3.34
2022-10-14T20:45:48.928Z,3.49
2022-10-14T20:48:15.592Z,3.31
2022-10-14T20:50:42.276Z,3.43
2022-10-14T20:53:11.371Z,3.73
2022-10-14T20:55:37.942Z,3.71
2022-10-14T20:58:04.688Z,3.71
2022-10-14T21:00:31.387Z,4.01
2022-10-14T21:02:59.338Z,3.48
2022-10-14T21:05:26.053Z,3.69
2022-10-14T21:07:52.726Z,3.31
2022-10-14T21:10:20.050Z,3.27
2022-10-14T21:12:48.800Z,3.32
2022-10-14T21:15:15.895Z,3.08
2022-10-14T21:17:49.794Z,3.35
2022-10-14T21:20:16.613Z,3.31
2022-10-14T21:22:43.247Z,3.08
2022-10-14T21:25:09.907Z,3.51
2022-10-14T21:27:36.561Z,3.16
2022-10-14T21:30:04.131Z,3.38
2022-10-14T21:32:31.041Z,3.05
2022-10-14T21:34:57.893Z,3.18
2022-10-14T21:37:24.605Z,3.17
2022-10-14T21:39:51.260Z,3.11
2022-10-14T21:42:17.909Z,2.84
2022-10-14T21:44:44.880Z,3.16
2022-10-14T21:47:11.533Z,2.90
2022-10-14T21:49:38.119Z,3.02
2022-10-14T21:52:04.776Z,2.78
2022-10-14T21:54:31.653Z,2.90
2022-10-14T21:56:58.351Z,2.73
2022-10-14T21:59:24.914Z,3.00
2022-10-14T22:01:54.932Z,3.29
2022-10-14T22:04:21.699Z,3.28
2022-10-14T22:06:48.282Z,3.37
2022-10-14T22:09:14.884Z,3.40
2022-10-14T22:11:41.572Z,3.40
2022-10-14T22:14:13.106Z,3.02
2022-10-14T22:16:40.072Z,3.43
2022-10-14T22:19:07.592Z,3.41
2022-10-14T22:21:36.058Z,3.60
2022-10-14T22:24:04.443Z,3.44
2022-10-14T22:26:32.446Z,3.35
2022-10-14T22:29:03.110Z,3.40
2022-10-14T22:31:31.201Z,3.07
2022-10-14T22:33:58.346Z,3.22
2022-10-14T22:36:28.323Z,3.43
2022-10-14T22:38:57.380Z,3.17
2022-10-14T22:41:25.621Z,2.97
2022-10-14T22:43:55.089Z,3.20
2022-10-14T22:46:25.765Z,3.32
2022-10-14T22:48:54.320Z,3.24
2022-10-14T22:51:20.984Z,2.97
2022-10-14T22:53:48.051Z,3.00
2022-10-14T22:56:18.130Z,3.24
2022-10-14T22:58:44.817Z,3.08
2022-10-14T23:01:15.252Z,2.98
2022-10-14T23:03:43.148Z,2.80
2022-10-14T23:06:12.794Z,2.74
2022-10-14T23:08:40.254Z,2.83
2022-10-14T23:11:07.870Z,3.09
2022-10-14T23:13:34.679Z,3.19
2022-10-14T23:16:06.974Z,2.96
2022-10-14T23:18:37.642Z,2.89
2022-10-14T23:21:18.862Z,2.76
2022-10-14T23:23:48.503Z,2.63
2022-10-14T23:26:18.165Z,2.68
2022-10-14T23:28:49.117Z,3.00
2022-10-14T23:31:18.884Z,2.79
2022-10-14T23:33:45.928Z,2.58
2022-10-14T23:36:13.573Z,2.70
2022-10-14T23:38:40.963Z,2.75
2022-10-14T23:41:09.799Z,2.83
2022-10-14T23:43:37.109Z,2.72
2022-10-14T23:46:04.670Z,2.66
2022-10-14T23:48:34.136Z,2.69
2022-10-14T23:51:01.333Z,2.72
2022-10-14T23:53:28.146Z,2.33
2022-10-14T23:55:56.405Z,2.32
2022-10-14T23:58:24.893Z,2.19
